createdAt,value
2017-11-21T00:00:52.377Z,100907.39
2017-11-21T00:03:18.716Z,100909.65
2017-11-21T00:05:45.275Z,100902.68
2017-11-21T00:08:11.487Z,100897.42
2017-11-21T00:10:37.746Z,100903.55
2017-11-21T00:13:03.950Z,100895.27
2017-11-21T00:15:30.402Z,100886.08
2017-11-21T00:17:56.654Z,100889.59
2017-11-21T00:20:22.861Z,100886.08
2017-11-21T00:22:49.072Z,100869.89
2017-11-21T00:25:15.433Z,100876.42
2017-11-21T00:27:41.653Z,100875.61
2017-11-21T00:30:07.851Z,100870.84
2017-11-21T00:32:34.244Z,100867.30
2017-11-21T00:35:00.452Z,100862.48
2017-11-21T00:37:26.676Z,100866.02
2017-11-21T00:39:53.017Z,100869.09
2017-11-21T00:42:19.515Z,100880.06
2017-11-21T00:44:45.727Z,100877.84
2017-11-21T00:47:11.994Z,100875.61
2017-11-21T00:49:38.203Z,100871.67
2017-11-21T00:52:04.398Z,100871.20
2017-11-21T00:54:30.676Z,100879.52
2017-11-21T00:56:56.884Z,100883.09
2017-11-21T00:59:23.116Z,100896.25
2017-11-21T01:01:49.613Z,100900.19
2017-11-21T01:04:16.192Z,100900.63
2017-11-21T01:06:42.383Z,100904.13
2017-11-21T01:09:08.719Z,100905.81
2017-11-21T01:11:34.907Z,100907.09
2017-11-21T01:14:01.113Z,100905.34
2017-11-21T01:16:27.352Z,100906.69
2017-11-21T01:18:53.537Z,100908.41
2017-11-21T01:21:19.727Z,100894.33
2017-11-21T01:23:46.233Z,100895.14
2017-11-21T01:26:12.668Z,100897.77
2017-11-21T01:28:38.858Z,100899.11
2017-11-21T01:31:05.128Z,100899.14
2017-11-21T01:33:31.635Z,100893.02
2017-11-21T01:35:57.848Z,100893.86
2017-11-21T01:38:24.090Z,100887.77
2017-11-21T01:40:50.275Z,100878.98
2017-11-21T01:43:16.480Z,100879.48
2017-11-21T01:45:42.748Z,100871.64
2017-11-21T01:48:08.963Z,100868.11
2017-11-21T01:50:35.159Z,100866.36
2017-11-21T01:53:01.433Z,100872.05
2017-11-21T01:55:27.663Z,100879.95
2017-11-21T01:57:53.882Z,100881.23
2017-11-21T02:00:20.129Z,100874.60
2017-11-21T02:02:46.417Z,100884.16
2017-11-21T02:05:12.616Z,100879.75
2017-11-21T02:07:38.949Z,100884.56
2017-11-21T02:10:05.146Z,100876.75
2017-11-21T02:12:31.598Z,100877.59
2017-11-21T02:14:57.922Z,100880.22
2017-11-21T02:17:24.143Z,100887.66
2017-11-21T02:19:50.356Z,100890.29
2017-11-21T02:22:16.720Z,100885.04
2017-11-21T02:24:42.933Z,100885.47
2017-11-21T02:27:09.373Z,100883.83
2017-11-21T02:29:35.708Z,100893.39
2017-11-21T02:32:01.915Z,100885.91
2017-11-21T02:34:28.193Z,100880.66
2017-11-21T02:36:54.476Z,100882.05
2017-11-21T02:39:20.687Z,100888.64
2017-11-21T02:41:46.910Z,100884.70
2017-11-21T02:44:13.490Z,100883.86
2017-11-21T02:46:39.727Z,100881.74
2017-11-21T02:49:05.934Z,100885.17
2017-11-21T02:51:32.184Z,100883.32
2017-11-21T02:53:58.454Z,100883.72
2017-11-21T02:56:24.692Z,100878.91
2017-11-21T02:58:50.880Z,100879.81
2017-11-21T03:01:17.138Z,100885.03
2017-11-21T03:03:43.333Z,100888.94
2017-11-21T03:06:09.535Z,100891.97
2017-11-21T03:08:36.038Z,100889.34
2017-11-21T03:11:02.243Z,100899.05
2017-11-21T03:13:28.448Z,100902.61
2017-11-21T03:15:54.785Z,100911.80
2017-11-21T03:18:20.987Z,100909.21
2017-11-21T03:20:59.376Z,100903.95
2017-11-21T03:23:37.560Z,100908.27
2017-11-21T03:26:16.100Z,100900.83
2017-11-21T03:28:42.304Z,100899.95
2017-11-21T03:31:08.512Z,100903.05
2017-11-21T03:33:34.843Z,100896.89
2017-11-21T03:36:01.155Z,100911.73
2017-11-21T03:38:27.416Z,100921.40
2017-11-21T03:40:53.680Z,100925.70
2017-11-21T03:43:20.113Z,100925.34
2017-11-21T03:45:46.658Z,100914.02
2017-11-21T03:48:12.884Z,100909.58
2017-11-21T03:50:39.235Z,100907.83
2017-11-21T03:53:05.438Z,100911.40
2017-11-21T03:55:31.652Z,100905.78
2017-11-21T03:57:57.909Z,100910.56
2017-11-21T04:00:24.116Z,100905.23
2017-11-21T04:02:50.331Z,100914.42
2017-11-21T04:05:17.001Z,100918.70
2017-11-21T04:07:43.214Z,100924.90
2017-11-21T04:10:09.440Z,100922.30
2017-11-21T04:12:35.702Z,100913.12
2017-11-21T04:15:01.900Z,100910.45
2017-11-21T04:17:28.093Z,100915.74
2017-11-21T04:19:54.425Z,100913.15
2017-11-21T04:22:20.638Z,100905.70
2017-11-21T04:24:46.848Z,100904.83
2017-11-21T04:27:13.423Z,100907.02
2017-11-21T04:29:39.638Z,100911.77
2017-11-21T04:32:05.855Z,100903.42
2017-11-21T04:34:32.117Z,100903.82
2017-11-21T04:36:58.367Z,100907.70
2017-11-21T04:39:24.583Z,100911.67
2017-11-21T04:41:50.841Z,100913.05
2017-11-21T04:44:17.060Z,100914.06
2017-11-21T04:46:43.253Z,100913.25
2017-11-21T04:49:09.519Z,100914.97
2017-11-21T04:51:35.728Z,100917.63
2017-11-21T04:54:01.939Z,100911.50
2017-11-21T04:56:28.285Z,100912.38
2017-11-21T04:58:54.485Z,100904.47
2017-11-21T05:01:20.706Z,100908.84
2017-11-21T05:03:47.045Z,100915.44
2017-11-21T05:06:13.521Z,100909.28
2017-11-21T05:08:39.959Z,100916.72
2017-11-21T05:11:06.257Z,100919.41
2017-11-21T05:13:32.484Z,100916.31
2017-11-21T05:15:58.727Z,100908.06
2017-11-21T05:18:25.057Z,100901.50
2017-11-21T05:20:51.259Z,100890.42
2017-11-21T05:23:17.649Z,100875.88
2017-11-21T05:25:43.923Z,100875.41
2017-11-21T05:28:10.114Z,100882.88
2017-11-21T05:30:36.319Z,100876.32
2017-11-21T05:33:14.687Z,100873.73
2017-11-21T05:35:40.908Z,100876.28
2017-11-21T05:38:07.313Z,100885.47
2017-11-21T05:40:33.659Z,100897.29
2017-11-21T05:42:59.867Z,100899.41
2017-11-21T05:45:26.075Z,100907.59
2017-11-21T05:47:52.712Z,100915.00
2017-11-21T05:50:18.928Z,100914.97
2017-11-21T05:52:45.139Z,100915.06
2017-11-21T05:55:11.466Z,100920.79
2017-11-21T05:57:37.748Z,100918.77
2017-11-21T06:00:03.965Z,100927.05
2017-11-21T06:02:30.230Z,100931.84
2017-11-21T06:04:56.451Z,100925.30
2017-11-21T06:07:22.686Z,100929.68
2017-11-21T06:09:48.988Z,100938.91
2017-11-21T06:12:15.416Z,100938.50
2017-11-21T06:14:41.624Z,100938.91
2017-11-21T06:17:07.904Z,100931.97
2017-11-21T06:19:34.094Z,100923.28
2017-11-21T06:22:00.445Z,100918.09
2017-11-21T06:24:26.675Z,100925.09
2017-11-21T06:26:53.114Z,100932.50
2017-11-21T06:29:19.461Z,100937.73
2017-11-21T06:31:45.676Z,100939.03
2017-11-21T06:34:11.885Z,100931.59
2017-11-21T06:36:38.216Z,100934.09
2017-11-21T06:39:04.429Z,100938.30
2017-11-21T06:41:30.703Z,100935.20
2017-11-21T06:43:57.045Z,100934.30
2017-11-21T06:46:23.225Z,100931.23
2017-11-21T06:48:49.417Z,100932.54
2017-11-21T06:51:15.752Z,100930.48
2017-11-21T06:53:41.958Z,100932.98
2017-11-21T06:56:08.153Z,100931.23
2017-11-21T06:58:34.400Z,100929.11
2017-11-21T07:01:00.600Z,100935.74
2017-11-21T07:03:26.782Z,100928.33
2017-11-21T07:05:53.263Z,100924.80
2017-11-21T07:08:19.473Z,100926.11
2017-11-21T07:10:45.668Z,100930.12
2017-11-21T07:13:11.948Z,100933.62
2017-11-21T07:15:38.148Z,100937.05
2017-11-21T07:18:04.366Z,100937.93
2017-11-21T07:20:30.700Z,100942.30
2017-11-21T07:22:56.933Z,100939.61
2017-11-21T07:25:23.144Z,100934.77
2017-11-21T07:27:49.636Z,100937.83
2017-11-21T07:30:16.079Z,100935.23
2017-11-21T07:32:42.270Z,100928.33
2017-11-21T07:35:08.530Z,100924.43
2017-11-21T07:37:34.898Z,100933.11
2017-11-21T07:40:01.333Z,100939.20
2017-11-21T07:42:27.619Z,100941.33
2017-11-21T07:44:53.827Z,100945.23
2017-11-21T07:47:20.046Z,100945.17
2017-11-21T07:49:46.529Z,100945.57
2017-11-21T07:52:12.971Z,100938.56
2017-11-21T07:54:39.207Z,100953.92
2017-11-21T07:57:05.553Z,100961.73
2017-11-21T07:59:31.786Z,100967.49
2017-11-21T08:01:57.967Z,100967.06
2017-11-21T08:04:24.297Z,100965.84
2017-11-21T08:06:50.520Z,100965.74
2017-11-21T08:09:16.734Z,100967.62
2017-11-21T08:11:43.053Z,100978.16
2017-11-21T08:14:09.259Z,100985.64
2017-11-21T08:16:35.470Z,100978.57
2017-11-21T08:19:01.758Z,100977.62
2017-11-21T08:21:27.940Z,100978.88
2017-11-21T08:23:54.491Z,100984.53
2017-11-21T08:26:20.835Z,100984.59
2017-11-21T08:28:47.051Z,100985.95
2017-11-21T08:31:13.252Z,100984.16
2017-11-21T08:33:39.549Z,100976.28
2017-11-21T08:36:05.759Z,100980.29
2017-11-21T08:38:31.978Z,100983.39
2017-11-21T08:40:58.296Z,100989.11
2017-11-21T08:43:24.503Z,100988.27
2017-11-21T08:45:50.720Z,100992.61
2017-11-21T08:48:16.948Z,100983.82
2017-11-21T08:50:43.158Z,100995.20
2017-11-21T08:53:09.508Z,100988.23
2017-11-21T08:55:35.733Z,100988.67
2017-11-21T08:58:01.941Z,100988.27
2017-11-21T09:00:28.302Z,100986.52
2017-11-21T09:02:54.831Z,100990.80
2017-11-21T09:05:21.047Z,100999.14
2017-11-21T09:07:47.548Z,101004.77
2017-11-21T09:10:13.791Z,101014.84
2017-11-21T09:12:40.013Z,101009.14
2017-11-21T09:15:06.336Z,101006.92
2017-11-21T09:17:32.538Z,101002.58
2017-11-21T09:19:58.744Z,101008.77
2017-11-21T09:22:25.093Z,101011.84
2017-11-21T09:24:51.538Z,101006.98
2017-11-21T09:27:17.780Z,101005.64
2017-11-21T09:29:44.068Z,101004.73
2017-11-21T09:32:10.287Z,101001.23
2017-11-21T09:34:36.487Z,100993.39
2017-11-21T09:37:02.861Z,100995.07
2017-11-21T09:39:29.111Z,101001.51
2017-11-21T09:41:55.426Z,101004.03
2017-11-21T09:44:21.760Z,101005.31
2017-11-21T09:46:47.956Z,101001.34
2017-11-21T09:49:14.174Z,100992.98
2017-11-21T09:51:40.755Z,100990.84
2017-11-21T09:54:07.216Z,100996.49
2017-11-21T09:56:33.432Z,100992.15
2017-11-21T09:58:59.941Z,100995.14
2017-11-21T10:01:26.171Z,100993.39
2017-11-21T10:03:52.387Z,100995.55
2017-11-21T10:06:18.725Z,101001.65
2017-11-21T10:08:44.953Z,101003.03
2017-11-21T10:11:11.165Z,101003.06
2017-11-21T10:13:37.520Z,100995.69
2017-11-21T10:16:03.783Z,100994.23
2017-11-21T10:18:30.014Z,100988.11
2017-11-21T10:20:56.310Z,100991.11
2017-11-21T10:23:22.525Z,100991.11
2017-11-21T10:25:48.735Z,100986.80
2017-11-21T10:28:15.256Z,100983.63
2017-11-21T10:30:41.682Z,100989.79
2017-11-21T10:33:08.167Z,100986.36
2017-11-21T10:35:34.507Z,100981.94
2017-11-21T10:38:00.692Z,100982.38
2017-11-21T10:40:27.084Z,100974.09
2017-11-21T10:42:53.366Z,100975.04
2017-11-21T10:45:19.716Z,100973.28
2017-11-21T10:47:45.952Z,100962.81
2017-11-21T10:50:12.211Z,100966.38
2017-11-21T10:52:38.678Z,100965.50
2017-11-21T10:55:05.242Z,100962.41
2017-11-21T10:57:31.842Z,100960.69
2017-11-21T10:59:58.055Z,100962.44
2017-11-21T11:02:24.277Z,100961.50
2017-11-21T11:04:50.564Z,100963.66
2017-11-21T11:07:16.843Z,100961.88
2017-11-21T11:09:43.074Z,100961.91
2017-11-21T11:12:09.354Z,100957.89
2017-11-21T11:14:35.594Z,100958.13
2017-11-21T11:17:01.821Z,100954.66
2017-11-21T11:19:28.112Z,100954.59
2017-11-21T11:21:54.587Z,100959.73
2017-11-21T11:24:20.801Z,100953.61
2017-11-21T11:26:47.158Z,100953.64
2017-11-21T11:29:13.659Z,100951.05
2017-11-21T11:31:39.881Z,100955.76
2017-11-21T11:34:06.166Z,100947.47
2017-11-21T11:36:32.632Z,100947.37
2017-11-21T11:38:58.871Z,100944.27
2017-11-21T11:41:25.163Z,100939.52
2017-11-21T11:43:51.381Z,100937.30
2017-11-21T11:46:17.702Z,100938.94
2017-11-21T11:48:44.053Z,100936.75
2017-11-21T11:51:10.510Z,100934.59
2017-11-21T11:53:36.969Z,100931.02
2017-11-21T11:56:03.241Z,100926.56
2017-11-21T11:58:29.456Z,100932.66
2017-11-21T12:00:55.703Z,100932.19
2017-11-21T12:03:21.980Z,100931.74
2017-11-21T12:05:48.282Z,100927.47
2017-11-21T12:08:20.497Z,100928.02
2017-11-21T12:10:46.858Z,100918.86
2017-11-21T12:13:13.222Z,100913.02
2017-11-21T12:15:39.675Z,100907.72
2017-11-21T12:18:06.090Z,100914.73
2017-11-21T12:20:32.303Z,100904.22
2017-11-21T12:22:58.534Z,100900.28
2017-11-21T12:25:25.145Z,100900.20
2017-11-21T12:27:51.359Z,100901.95
2017-11-21T12:30:17.659Z,100900.24
2017-11-21T12:32:44.001Z,100906.45
2017-11-21T12:35:10.236Z,100901.19
2017-11-21T12:37:36.524Z,100902.51
2017-11-21T12:40:02.824Z,100892.14
2017-11-21T12:42:29.105Z,100890.06
2017-11-21T12:44:55.339Z,100892.22
2017-11-21T12:47:21.817Z,100883.05
2017-11-21T12:49:48.072Z,100880.03
2017-11-21T12:52:14.363Z,100880.50
2017-11-21T12:54:41.040Z,100878.78
2017-11-21T12:57:07.545Z,100879.62
2017-11-21T12:59:33.767Z,100877.91
2017-11-21T13:02:00.370Z,100869.16
2017-11-21T13:04:26.596Z,100866.73
2017-11-21T13:06:53.070Z,100861.77
2017-11-21T13:09:19.417Z,100861.30
2017-11-21T13:11:45.783Z,100861.33
2017-11-21T13:14:12.055Z,100855.64
2017-11-21T13:16:38.388Z,100850.82
2017-11-21T13:19:04.626Z,100851.30
2017-11-21T13:21:30.931Z,100852.77
2017-11-21T13:23:57.425Z,100848.45
2017-11-21T13:26:23.737Z,100855.43
2017-11-21T13:28:50.047Z,100858.16
2017-11-21T13:31:16.402Z,100851.16
2017-11-21T13:33:42.954Z,100853.86
2017-11-21T13:36:09.525Z,100857.80
2017-11-21T13:38:35.836Z,100850.33
2017-11-21T13:41:02.197Z,100851.16
2017-11-21T13:43:28.439Z,100848.49
2017-11-21T13:45:54.802Z,100842.77
2017-11-21T13:48:21.043Z,100843.20
2017-11-21T13:50:47.384Z,100838.20
2017-11-21T13:53:13.706Z,100835.92
2017-11-21T13:55:39.951Z,100832.78
2017-11-21T13:58:06.159Z,100833.34
2017-11-21T14:00:32.563Z,100829.47
2017-11-21T14:02:58.818Z,100829.16
2017-11-21T14:05:32.451Z,100827.47
2017-11-21T14:07:58.983Z,100819.19
2017-11-21T14:10:25.202Z,100816.56
2017-11-21T14:12:51.475Z,100814.41
2017-11-21T14:15:18.011Z,100817.52
2017-11-21T14:17:44.232Z,100819.27
2017-11-21T14:20:10.519Z,100821.93
2017-11-21T14:22:36.790Z,100824.59
2017-11-21T14:25:03.027Z,100816.43
2017-11-21T14:27:29.679Z,100823.00
2017-11-21T14:29:56.165Z,100822.59
2017-11-21T14:32:22.597Z,100822.08
2017-11-21T14:34:49.055Z,100819.05
2017-11-21T14:37:15.346Z,100816.87
2017-11-21T14:39:41.540Z,100811.65
2017-11-21T14:42:07.766Z,100812.05
2017-11-21T14:44:34.187Z,100816.06
2017-11-21T14:47:00.668Z,100817.38
2017-11-21T14:49:26.889Z,100815.70
2017-11-21T14:51:53.183Z,100822.27
2017-11-21T14:54:19.389Z,100817.02
2017-11-21T14:56:45.615Z,100817.05
2017-11-21T14:59:11.963Z,100809.13
2017-11-21T15:01:38.188Z,100816.58
2017-11-21T15:04:04.425Z,100810.08
2017-11-21T15:06:31.036Z,100804.87
2017-11-21T15:08:57.242Z,100805.75
2017-11-21T15:11:23.471Z,100802.75
2017-11-21T15:13:49.831Z,100804.88
2017-11-21T15:16:16.049Z,100800.09
2017-11-21T15:18:42.247Z,100800.09
2017-11-21T15:21:08.508Z,100796.63
2017-11-21T15:23:34.728Z,100800.13
2017-11-21T15:26:01.448Z,100795.71
2017-11-21T15:28:27.826Z,100793.92
2017-11-21T15:30:54.060Z,100796.63
2017-11-21T15:33:20.260Z,100794.72
2017-11-21T15:35:46.615Z,100793.01
2017-11-21T15:38:12.849Z,100787.28
2017-11-21T15:40:39.067Z,100786.84
2017-11-21T15:43:05.411Z,100786.88
2017-11-21T15:45:31.625Z,100787.88
2017-11-21T15:47:57.873Z,100787.06
2017-11-21T15:50:24.260Z,100779.19
2017-11-21T15:52:50.513Z,100778.23
2017-11-21T15:55:16.741Z,100779.55
2017-11-21T15:57:43.018Z,100780.47
2017-11-21T16:00:09.247Z,100779.03
2017-11-21T16:02:35.451Z,100773.86
2017-11-21T16:05:01.786Z,100780.42
2017-11-21T16:07:28.011Z,100784.04
2017-11-21T16:09:54.227Z,100777.40
2017-11-21T16:12:20.573Z,100777.33
2017-11-21T16:14:46.804Z,100778.64
2017-11-21T16:17:13.031Z,100782.66
2017-11-21T16:19:39.422Z,100776.52
2017-11-21T16:22:05.631Z,100776.52
2017-11-21T16:24:31.838Z,100774.73
2017-11-21T16:26:58.101Z,100770.36
2017-11-21T16:29:24.296Z,100764.62
2017-11-21T16:31:50.508Z,100763.36
2017-11-21T16:34:16.781Z,100755.08
2017-11-21T16:36:42.992Z,100753.76
2017-11-21T16:39:09.231Z,100754.64
2017-11-21T16:41:35.559Z,100752.92
2017-11-21T16:44:01.763Z,100744.61
2017-11-21T16:46:27.997Z,100746.36
2017-11-21T16:48:54.343Z,100745.95
2017-11-21T16:51:20.976Z,100744.24
2017-11-21T16:53:47.499Z,100733.73
2017-11-21T16:56:13.845Z,100730.23
2017-11-21T16:58:40.063Z,100735.41
2017-11-21T17:01:06.269Z,100738.48
2017-11-21T17:03:32.548Z,100737.60
2017-11-21T17:05:58.761Z,100733.27
2017-11-21T17:08:25.377Z,100730.64
2017-11-21T17:10:53.444Z,100728.89
2017-11-21T17:13:20.067Z,100732.46
2017-11-21T17:15:46.488Z,100740.38
2017-11-21T17:18:12.896Z,100748.77
2017-11-21T17:20:39.342Z,100753.59
2017-11-21T17:23:05.700Z,100753.08
2017-11-21T17:25:31.982Z,100752.96
2017-11-21T17:27:58.210Z,100743.73
2017-11-21T17:30:24.433Z,100749.50
2017-11-21T17:32:50.776Z,100744.25
2017-11-21T17:35:17.322Z,100742.42
2017-11-21T17:37:43.540Z,100742.93
2017-11-21T17:40:09.821Z,100744.20
2017-11-21T17:42:36.147Z,100742.02
2017-11-21T17:45:02.353Z,100734.10
2017-11-21T17:47:28.942Z,100739.47
2017-11-21T17:49:57.575Z,100736.33
2017-11-21T17:52:23.801Z,100734.97
2017-11-21T17:54:50.079Z,100729.80
2017-11-21T17:57:16.564Z,100725.42
2017-11-21T17:59:42.804Z,100712.29
2017-11-21T18:02:09.088Z,100710.54
2017-11-21T18:04:35.300Z,100711.85
2017-11-21T18:07:01.579Z,100706.56
2017-11-21T18:09:28.084Z,100698.60
2017-11-21T18:11:54.291Z,100694.06
2017-11-21T18:14:20.491Z,100694.03
2017-11-21T18:16:46.850Z,100686.55
2017-11-21T18:19:13.075Z,100692.23
2017-11-21T18:21:39.299Z,100694.43
2017-11-21T18:24:05.634Z,100696.70
2017-11-21T18:26:32.074Z,100700.16
2017-11-21T18:28:58.267Z,100692.80
2017-11-21T18:31:24.548Z,100691.52
2017-11-21T18:33:50.747Z,100689.77
2017-11-21T18:36:16.943Z,100687.98
2017-11-21T18:38:43.209Z,100690.61
2017-11-21T18:41:09.652Z,100700.23
2017-11-21T18:43:35.864Z,100702.38
2017-11-21T18:46:02.149Z,100695.55
2017-11-21T18:48:28.376Z,100695.06
2017-11-21T18:50:54.802Z,100691.08
2017-11-21T18:53:20.985Z,100681.89
2017-11-21T18:55:47.185Z,100682.25
2017-11-21T18:58:13.541Z,100676.48
2017-11-21T19:00:39.740Z,100676.52
2017-11-21T19:03:06.140Z,100667.80
2017-11-21T19:05:32.403Z,100670.11
2017-11-21T19:07:58.593Z,100654.78
2017-11-21T19:10:24.789Z,100656.89
2017-11-21T19:12:51.050Z,100654.70
2017-11-21T19:15:17.350Z,100666.17
2017-11-21T19:17:43.649Z,100663.91
2017-11-21T19:20:09.913Z,100660.99
2017-11-21T19:22:36.115Z,100655.31
2017-11-21T19:25:02.319Z,100653.03
2017-11-21T19:27:28.893Z,100643.02
2017-11-21T19:29:55.078Z,100649.09
2017-11-21T19:32:21.294Z,100645.20
2017-11-21T19:34:47.682Z,100641.81
2017-11-21T19:37:13.896Z,100643.09
2017-11-21T19:39:40.115Z,100632.98
2017-11-21T19:42:06.684Z,100631.07
2017-11-21T19:44:32.888Z,100637.59
2017-11-21T19:46:59.099Z,100632.38
2017-11-21T19:49:25.690Z,100630.07
2017-11-21T19:51:51.965Z,100628.28
2017-11-21T19:54:18.331Z,100612.28
2017-11-21T19:56:44.859Z,100617.89
2017-11-21T19:59:13.979Z,100620.80
2017-11-21T20:01:40.175Z,100613.31
2017-11-21T20:04:06.443Z,100616.37
2017-11-21T20:06:32.705Z,100616.72
2017-11-21T20:09:00.049Z,100617.13
2017-11-21T20:11:26.447Z,100612.20
2017-11-21T20:13:52.679Z,100609.82
2017-11-21T20:16:18.892Z,100605.09
2017-11-21T20:18:46.075Z,100608.55
2017-11-21T20:21:12.264Z,100599.91
2017-11-21T20:23:39.337Z,100594.69
2017-11-21T20:26:05.691Z,100587.69
2017-11-21T20:28:31.968Z,100586.80
2017-11-21T20:30:59.208Z,100573.24
2017-11-21T20:33:25.515Z,100562.34
2017-11-21T20:35:51.753Z,100567.03
2017-11-21T20:38:18.835Z,100560.95
2017-11-21T20:40:45.166Z,100566.90
2017-11-21T20:43:11.431Z,100564.59
2017-11-21T20:45:37.635Z,100562.34
2017-11-21T20:48:04.183Z,100571.94
2017-11-21T20:50:30.391Z,100577.98
2017-11-21T20:52:56.628Z,100573.17
2017-11-21T20:55:23.217Z,100571.81
2017-11-21T20:57:49.665Z,100561.70
2017-11-21T21:00:18.803Z,100567.88
2017-11-21T21:02:45.208Z,100570.23
2017-11-21T21:05:11.417Z,100559.77
2017-11-21T21:07:37.956Z,100557.18
2017-11-21T21:10:04.225Z,100554.99
2017-11-21T21:12:30.492Z,100555.39
2017-11-21T21:14:56.709Z,100552.63
2017-11-21T21:17:23.051Z,100541.56
2017-11-21T21:19:49.337Z,100537.00
2017-11-21T21:22:15.571Z,100533.14
2017-11-21T21:24:41.921Z,100535.59
2017-11-21T21:27:20.548Z,100529.55
2017-11-21T21:29:46.916Z,100527.45
2017-11-21T21:32:13.210Z,100526.05
2017-11-21T21:34:39.411Z,100530.03
2017-11-21T21:37:05.782Z,100529.38
2017-11-21T21:39:32.065Z,100524.17
2017-11-21T21:41:58.311Z,100516.28
2017-11-21T21:44:24.734Z,100514.09
2017-11-21T21:46:50.938Z,100507.83
2017-11-21T21:49:17.153Z,100517.45
2017-11-21T21:51:43.424Z,100519.20
2017-11-21T21:54:09.664Z,100514.97
2017-11-21T21:56:35.913Z,100511.94
2017-11-21T21:59:02.215Z,100514.61
2017-11-21T22:01:28.810Z,100507.52
2017-11-21T22:03:55.029Z,100506.61
2017-11-21T22:06:21.278Z,100505.23
2017-11-21T22:08:47.497Z,100502.13
2017-11-21T22:11:13.951Z,100495.56
2017-11-21T22:13:40.236Z,100495.45
2017-11-21T22:16:06.519Z,100490.64
2017-11-21T22:18:32.847Z,100482.02
2017-11-21T22:20:59.213Z,100480.72
2017-11-21T22:23:25.635Z,100482.03
2017-11-21T22:25:52.059Z,100472.00
2017-11-21T22:28:18.478Z,100471.94
2017-11-21T22:30:44.972Z,100472.83
2017-11-21T22:33:11.225Z,100467.08
2017-11-21T22:35:37.870Z,100466.02
2017-11-21T22:38:04.237Z,100462.84
2017-11-21T22:40:31.121Z,100452.05
2017-11-21T22:42:57.606Z,100460.45
2017-11-21T22:45:24.148Z,100461.85
2017-11-21T22:47:50.434Z,100461.42
2017-11-21T22:50:16.787Z,100456.70
2017-11-21T22:52:44.197Z,100453.19
2017-11-21T22:55:10.585Z,100446.58
2017-11-21T22:57:37.988Z,100443.52
2017-11-21T23:00:05.293Z,100443.08
2017-11-21T23:02:31.620Z,100436.84
2017-11-21T23:04:57.972Z,100431.16
2017-11-21T23:07:24.194Z,100428.58
2017-11-21T23:09:50.449Z,100426.64
2017-11-21T23:12:16.775Z,100430.53
2017-11-21T23:14:43.142Z,100431.38
2017-11-21T23:17:09.434Z,100420.81
2017-11-21T23:19:35.877Z,100422.12
2017-11-21T23:22:02.138Z,100419.98
2017-11-21T23:24:28.760Z,100424.41
2017-11-21T23:26:58.473Z,100423.92
2017-11-21T23:29:26.569Z,100420.28
2017-11-21T23:31:52.881Z,100421.98
2017-11-21T23:34:24.575Z,100423.77
2017-11-21T23:36:50.889Z,100418.42
2017-11-21T23:39:17.396Z,100424.59
2017-11-21T23:41:43.732Z,100421.05
2017-11-21T23:44:10.134Z,100420.08
2017-11-21T23:46:37.707Z,100414.34
2017-11-21T23:49:04.054Z,100410.16
2017-11-21T23:51:30.387Z,100408.64
2017-11-21T23:53:56.918Z,100405.38
2017-11-21T23:56:23.209Z,100403.97
2017-11-21T23:58:49.463Z,100398.80
